sensor_id;sensor_type;location;lat;lon;timestamp;temperature;humidity
16827;DHT22;8530;49.540;8.576;2022-12-16T00:00:40;-2.30;98.80
16827;DHT22;8530;49.540;8.576;2022-12-16T00:03:08;-2.40;98.80
16827;DHT22;8530;49.540;8.576;2022-12-16T00:05:35;-2.40;98.80
16827;DHT22;8530;49.540;8.576;2022-12-16T00:08:03;-2.40;98.80
16827;DHT22;8530;49.540;8.576;2022-12-16T00:10:30;-2.40;98.80
16827;DHT22;8530;49.540;8.576;2022-12-16T00:13:16;-2.40;98.80
16827;DHT22;8530;49.540;8.576;2022-12-16T00:15:43;-2.50;98.70
16827;DHT22;8530;49.540;8.576;2022-12-16T00:18:12;-2.50;98.70
16827;DHT22;8530;49.540;8.576;2022-12-16T00:20:43;-2.50;98.80
16827;DHT22;8530;49.540;8.576;2022-12-16T00:23:10;-2.50;99.00
16827;DHT22;8530;49.540;8.576;2022-12-16T00:25:37;-2.50;98.80
16827;DHT22;8530;49.540;8.576;2022-12-16T00:28:04;-2.50;98.80
16827;DHT22;8530;49.540;8.576;2022-12-16T00:30:31;-2.50;98.80
16827;DHT22;8530;49.540;8.576;2022-12-16T00:32:58;-2.50;98.70
16827;DHT22;8530;49.540;8.576;2022-12-16T00:35:26;-2.50;98.70
16827;DHT22;8530;49.540;8.576;2022-12-16T00:37:53;-2.50;98.70
16827;DHT22;8530;49.540;8.576;2022-12-16T00:40:20;-2.60;98.60
16827;DHT22;8530;49.540;8.576;2022-12-16T00:42:46;-2.60;98.60
16827;DHT22;8530;49.540;8.576;2022-12-16T00:45:13;-2.60;98.60
16827;DHT22;8530;49.540;8.576;2022-12-16T00:47:40;-2.60;98.60
16827;DHT22;8530;49.540;8.576;2022-12-16T00:50:08;-2.70;98.50
16827;DHT22;8530;49.540;8.576;2022-12-16T00:52:37;-2.70;98.50
16827;DHT22;8530;49.540;8.576;2022-12-16T00:55:05;-2.70;98.50
16827;DHT22;8530;49.540;8.576;2022-12-16T00:57:32;-2.70;98.50
16827;DHT22;8530;49.540;8.576;2022-12-16T00:59:59;-2.80;98.40
16827;DHT22;8530;49.540;8.576;2022-12-16T01:02:28;-2.80;98.40
16827;DHT22;8530;49.540;8.576;2022-12-16T01:04:55;-2.80;98.40
16827;DHT22;8530;49.540;8.576;2022-12-16T01:07:22;-2.80;98.40
16827;DHT22;8530;49.540;8.576;2022-12-16T01:09:51;-2.90;98.30
16827;DHT22;8530;49.540;8.576;2022-12-16T01:12:17;-2.90;98.30
16827;DHT22;8530;49.540;8.576;2022-12-16T01:14:44;-3.00;98.20
16827;DHT22;8530;49.540;8.576;2022-12-16T01:17:11;-3.00;98.20
16827;DHT22;8530;49.540;8.576;2022-12-16T01:19:38;-3.00;98.20
16827;DHT22;8530;49.540;8.576;2022-12-16T01:22:05;-3.10;98.20
16827;DHT22;8530;49.540;8.576;2022-12-16T01:24:33;-3.10;98.20
16827;DHT22;8530;49.540;8.576;2022-12-16T01:27:01;-3.10;98.20
16827;DHT22;8530;49.540;8.576;2022-12-16T01:29:28;-3.10;98.20
16827;DHT22;8530;49.540;8.576;2022-12-16T01:31:55;-3.20;98.20
16827;DHT22;8530;49.540;8.576;2022-12-16T01:34:22;-3.20;98.20
16827;DHT22;8530;49.540;8.576;2022-12-16T01:36:49;-3.20;98.20
16827;DHT22;8530;49.540;8.576;2022-12-16T01:39:16;-3.20;98.20
16827;DHT22;8530;49.540;8.576;2022-12-16T01:41:43;-3.30;98.20
16827;DHT22;8530;49.540;8.576;2022-12-16T01:44:14;-3.30;98.20
16827;DHT22;8530;49.540;8.576;2022-12-16T01:46:42;-3.30;98.20
16827;DHT22;8530;49.540;8.576;2022-12-16T01:49:17;-3.40;98.20
16827;DHT22;8530;49.540;8.576;2022-12-16T01:51:46;-3.40;98.20
16827;DHT22;8530;49.540;8.576;2022-12-16T01:54:16;-3.40;98.20
16827;DHT22;8530;49.540;8.576;2022-12-16T01:56:48;-3.50;98.10
16827;DHT22;8530;49.540;8.576;2022-12-16T01:59:18;-3.50;98.10
16827;DHT22;8530;49.540;8.576;2022-12-16T02:01:46;-3.50;98.10
16827;DHT22;8530;49.540;8.576;2022-12-16T02:04:14;-3.60;98.10
16827;DHT22;8530;49.540;8.576;2022-12-16T02:06:41;-3.60;98.10
16827;DHT22;8530;49.540;8.576;2022-12-16T02:09:09;-3.70;98.10
16827;DHT22;8530;49.540;8.576;2022-12-16T02:14:57;-3.80;98.10
16827;DHT22;8530;49.540;8.576;2022-12-16T02:17:37;-3.80;98.10
16827;DHT22;8530;49.540;8.576;2022-12-16T02:20:38;-3.90;98.10
16827;DHT22;8530;49.540;8.576;2022-12-16T02:23:35;-3.90;98.20
16827;DHT22;8530;49.540;8.576;2022-12-16T02:26:24;-3.90;98.20
16827;DHT22;8530;49.540;8.576;2022-12-16T02:29:10;-4.00;98.20
16827;DHT22;8530;49.540;8.576;2022-12-16T02:31:45;-4.00;98.20
16827;DHT22;8530;49.540;8.576;2022-12-16T02:34:17;-4.00;98.30
16827;DHT22;8530;49.540;8.576;2022-12-16T02:36:56;-4.10;98.30
16827;DHT22;8530;49.540;8.576;2022-12-16T02:39:29;-4.10;98.30
16827;DHT22;8530;49.540;8.576;2022-12-16T02:42:01;-4.10;98.30
16827;DHT22;8530;49.540;8.576;2022-12-16T02:44:38;-4.10;98.40
16827;DHT22;8530;49.540;8.576;2022-12-16T02:47:08;-4.10;98.40
16827;DHT22;8530;49.540;8.576;2022-12-16T02:49:44;-4.20;98.30
16827;DHT22;8530;49.540;8.576;2022-12-16T02:52:12;-4.20;98.30
16827;DHT22;8530;49.540;8.576;2022-12-16T02:54:40;-4.20;98.40
16827;DHT22;8530;49.540;8.576;2022-12-16T02:57:16;-4.20;98.40
16827;DHT22;8530;49.540;8.576;2022-12-16T02:59:52;-4.30;98.30
16827;DHT22;8530;49.540;8.576;2022-12-16T03:02:24;-4.30;98.40
16827;DHT22;8530;49.540;8.576;2022-12-16T03:04:55;-4.30;98.40
16827;DHT22;8530;49.540;8.576;2022-12-16T03:07:25;-4.40;98.40
16827;DHT22;8530;49.540;8.576;2022-12-16T03:09:56;-4.40;98.40
16827;DHT22;8530;49.540;8.576;2022-12-16T03:12:24;-4.40;98.50
16827;DHT22;8530;49.540;8.576;2022-12-16T03:14:53;-4.40;98.50
16827;DHT22;8530;49.540;8.576;2022-12-16T03:17:24;-4.50;98.40
16827;DHT22;8530;49.540;8.576;2022-12-16T03:19:56;-4.50;98.40
16827;DHT22;8530;49.540;8.576;2022-12-16T03:22:28;-4.50;98.40
16827;DHT22;8530;49.540;8.576;2022-12-16T03:24:57;-4.50;98.50
16827;DHT22;8530;49.540;8.576;2022-12-16T03:27:28;-4.60;98.50
16827;DHT22;8530;49.540;8.576;2022-12-16T03:30:02;-4.60;98.50
16827;DHT22;8530;49.540;8.576;2022-12-16T03:32:36;-4.60;98.50
16827;DHT22;8530;49.540;8.576;2022-12-16T03:35:11;-4.70;98.50
16827;DHT22;8530;49.540;8.576;2022-12-16T03:37:41;-4.70;98.50
16827;DHT22;8530;49.540;8.576;2022-12-16T03:40:10;-4.70;98.50
16827;DHT22;8530;49.540;8.576;2022-12-16T03:42:38;-4.80;98.50
16827;DHT22;8530;49.540;8.576;2022-12-16T03:45:07;-4.80;98.60
16827;DHT22;8530;49.540;8.576;2022-12-16T03:47:38;-4.80;98.60
16827;DHT22;8530;49.540;8.576;2022-12-16T03:50:05;-4.80;98.60
16827;DHT22;8530;49.540;8.576;2022-12-16T03:52:33;-4.90;98.60
16827;DHT22;8530;49.540;8.576;2022-12-16T03:55:00;-4.90;98.60
16827;DHT22;8530;49.540;8.576;2022-12-16T03:57:27;-4.90;98.60
16827;DHT22;8530;49.540;8.576;2022-12-16T03:59:54;-4.90;98.60
16827;DHT22;8530;49.540;8.576;2022-12-16T04:02:21;-4.90;98.60
16827;DHT22;8530;49.540;8.576;2022-12-16T04:04:49;-5.00;98.60
16827;DHT22;8530;49.540;8.576;2022-12-16T04:07:16;-5.00;98.60
16827;DHT22;8530;49.540;8.576;2022-12-16T04:09:50;-5.00;98.60
16827;DHT22;8530;49.540;8.576;2022-12-16T04:12:17;-5.00;98.60
16827;DHT22;8530;49.540;8.576;2022-12-16T04:15:14;-5.10;98.60
16827;DHT22;8530;49.540;8.576;2022-12-16T04:17:57;-5.10;98.60
16827;DHT22;8530;49.540;8.576;2022-12-16T04:20:44;-5.20;98.60
16827;DHT22;8530;49.540;8.576;2022-12-16T04:23:31;-5.20;98.60
16827;DHT22;8530;49.540;8.576;2022-12-16T04:26:16;-5.20;98.60
16827;DHT22;8530;49.540;8.576;2022-12-16T04:28:43;-5.20;98.60
16827;DHT22;8530;49.540;8.576;2022-12-16T04:31:10;-5.20;98.60
16827;DHT22;8530;49.540;8.576;2022-12-16T04:33:38;-5.20;98.60
16827;DHT22;8530;49.540;8.576;2022-12-16T04:36:24;-5.20;98.60
16827;DHT22;8530;49.540;8.576;2022-12-16T04:39:08;-5.30;98.60
16827;DHT22;8530;49.540;8.576;2022-12-16T04:41:52;-5.30;98.60
16827;DHT22;8530;49.540;8.576;2022-12-16T04:44:51;-5.30;98.60
16827;DHT22;8530;49.540;8.576;2022-12-16T04:47:36;-5.40;98.60
16827;DHT22;8530;49.540;8.576;2022-12-16T04:50:20;-5.40;98.60
16827;DHT22;8530;49.540;8.576;2022-12-16T04:53:06;-5.50;98.50
16827;DHT22;8530;49.540;8.576;2022-12-16T04:55:51;-5.50;98.60
16827;DHT22;8530;49.540;8.576;2022-12-16T04:58:35;-5.50;98.60
16827;DHT22;8530;49.540;8.576;2022-12-16T05:01:19;-5.50;98.60
16827;DHT22;8530;49.540;8.576;2022-12-16T05:04:03;-5.50;98.70
16827;DHT22;8530;49.540;8.576;2022-12-16T05:06:47;-5.60;98.60
16827;DHT22;8530;49.540;8.576;2022-12-16T05:09:34;-5.60;98.70
16827;DHT22;8530;49.540;8.576;2022-12-16T05:12:18;-5.70;98.70
16827;DHT22;8530;49.540;8.576;2022-12-16T05:15:11;-5.60;98.70
16827;DHT22;8530;49.540;8.576;2022-12-16T05:17:55;-5.70;98.70
16827;DHT22;8530;49.540;8.576;2022-12-16T05:20:39;-5.80;98.70
16827;DHT22;8530;49.540;8.576;2022-12-16T05:23:24;-5.70;98.80
16827;DHT22;8530;49.540;8.576;2022-12-16T05:26:10;-5.80;98.70
16827;DHT22;8530;49.540;8.576;2022-12-16T05:28:55;-5.90;98.70
16827;DHT22;8530;49.540;8.576;2022-12-16T05:31:39;-5.90;98.80
16827;DHT22;8530;49.540;8.576;2022-12-16T05:34:23;-5.90;98.80
16827;DHT22;8530;49.540;8.576;2022-12-16T05:37:08;-6.00;98.80
16827;DHT22;8530;49.540;8.576;2022-12-16T05:39:52;-6.00;98.80
16827;DHT22;8530;49.540;8.576;2022-12-16T05:42:38;-6.00;98.80
16827;DHT22;8530;49.540;8.576;2022-12-16T05:45:22;-6.00;98.90
16827;DHT22;8530;49.540;8.576;2022-12-16T05:48:06;-6.10;98.80
16827;DHT22;8530;49.540;8.576;2022-12-16T05:50:50;-6.10;98.90
16827;DHT22;8530;49.540;8.576;2022-12-16T05:53:34;-6.10;98.90
16827;DHT22;8530;49.540;8.576;2022-12-16T05:56:18;-6.10;99.00
16827;DHT22;8530;49.540;8.576;2022-12-16T05:59:09;-6.20;98.90
16827;DHT22;8530;49.540;8.576;2022-12-16T06:01:54;-6.20;98.90
16827;DHT22;8530;49.540;8.576;2022-12-16T06:04:38;-6.20;99.00
16827;DHT22;8530;49.540;8.576;2022-12-16T06:07:22;-6.30;99.00
16827;DHT22;8530;49.540;8.576;2022-12-16T06:10:07;-6.30;99.00
16827;DHT22;8530;49.540;8.576;2022-12-16T06:12:52;-6.30;99.00
16827;DHT22;8530;49.540;8.576;2022-12-16T06:15:39;-6.40;98.90
16827;DHT22;8530;49.540;8.576;2022-12-16T06:18:23;-6.40;99.00
16827;DHT22;8530;49.540;8.576;2022-12-16T06:21:07;-6.40;99.00
16827;DHT22;8530;49.540;8.576;2022-12-16T06:23:52;-6.50;99.00
16827;DHT22;8530;49.540;8.576;2022-12-16T06:26:47;-6.50;99.00
16827;DHT22;8530;49.540;8.576;2022-12-16T06:29:31;-6.50;99.00
16827;DHT22;8530;49.540;8.576;2022-12-16T06:32:17;-6.50;99.00
16827;DHT22;8530;49.540;8.576;2022-12-16T06:35:02;-6.50;99.10
16827;DHT22;8530;49.540;8.576;2022-12-16T06:37:48;-6.60;99.00
16827;DHT22;8530;49.540;8.576;2022-12-16T06:40:33;-6.60;99.00
16827;DHT22;8530;49.540;8.576;2022-12-16T06:43:17;-6.60;99.10
16827;DHT22;8530;49.540;8.576;2022-12-16T06:46:02;-6.60;99.10
16827;DHT22;8530;49.540;8.576;2022-12-16T06:48:47;-6.60;99.10
16827;DHT22;8530;49.540;8.576;2022-12-16T06:51:34;-6.60;99.20
16827;DHT22;8530;49.540;8.576;2022-12-16T06:54:30;-6.60;99.20
16827;DHT22;8530;49.540;8.576;2022-12-16T06:57:13;-6.60;99.20
16827;DHT22;8530;49.540;8.576;2022-12-16T06:59:58;-6.60;99.30
16827;DHT22;8530;49.540;8.576;2022-12-16T07:02:42;-6.60;99.30
16827;DHT22;8530;49.540;8.576;2022-12-16T07:05:27;-6.60;99.30
16827;DHT22;8530;49.540;8.576;2022-12-16T07:08:11;-6.50;99.50
16827;DHT22;8530;49.540;8.576;2022-12-16T07:10:56;-6.50;99.60
16827;DHT22;8530;49.540;8.576;2022-12-16T07:13:40;-6.40;99.70
16827;DHT22;8530;49.540;8.576;2022-12-16T07:16:24;-6.30;99.70
16827;DHT22;8530;49.540;8.576;2022-12-16T07:19:08;-6.30;99.70
16827;DHT22;8530;49.540;8.576;2022-12-16T07:21:54;-6.30;99.80
16827;DHT22;8530;49.540;8.576;2022-12-16T07:24:39;-6.30;99.80
16827;DHT22;8530;49.540;8.576;2022-12-16T07:27:24;-6.30;99.80
16827;DHT22;8530;49.540;8.576;2022-12-16T07:30:09;-6.20;99.80
16827;DHT22;8530;49.540;8.576;2022-12-16T07:32:50;-6.20;99.80
16827;DHT22;8530;49.540;8.576;2022-12-16T07:35:35;-6.20;99.70
16827;DHT22;8530;49.540;8.576;2022-12-16T07:38:20;-6.20;99.70
16827;DHT22;8530;49.540;8.576;2022-12-16T07:41:04;-6.20;99.70
16827;DHT22;8530;49.540;8.576;2022-12-16T07:43:49;-6.20;99.80
16827;DHT22;8530;49.540;8.576;2022-12-16T07:46:33;-6.20;99.80
16827;DHT22;8530;49.540;8.576;2022-12-16T07:49:17;-6.10;99.80
16827;DHT22;8530;49.540;8.576;2022-12-16T07:52:01;-6.10;99.80
16827;DHT22;8530;49.540;8.576;2022-12-16T07:54:46;-6.10;99.80
16827;DHT22;8530;49.540;8.576;2022-12-16T07:57:31;-6.10;99.80
16827;DHT22;8530;49.540;8.576;2022-12-16T08:00:15;-6.00;99.80
16827;DHT22;8530;49.540;8.576;2022-12-16T08:02:59;-6.00;99.80
16827;DHT22;8530;49.540;8.576;2022-12-16T08:05:52;-6.00;99.80
16827;DHT22;8530;49.540;8.576;2022-12-16T08:08:36;-5.90;99.80
16827;DHT22;8530;49.540;8.576;2022-12-16T08:11:22;-5.90;99.80
16827;DHT22;8530;49.540;8.576;2022-12-16T08:14:06;-5.80;99.90
16827;DHT22;8530;49.540;8.576;2022-12-16T08:16:50;-5.40;99.90
16827;DHT22;8530;49.540;8.576;2022-12-16T08:19:34;-4.90;99.90
16827;DHT22;8530;49.540;8.576;2022-12-16T08:22:19;-4.80;99.90
16827;DHT22;8530;49.540;8.576;2022-12-16T08:25:04;-4.80;99.90
16827;DHT22;8530;49.540;8.576;2022-12-16T08:27:54;-4.90;99.90
16827;DHT22;8530;49.540;8.576;2022-12-16T08:30:38;-4.90;99.90
16827;DHT22;8530;49.540;8.576;2022-12-16T08:33:22;-5.00;99.90
16827;DHT22;8530;49.540;8.576;2022-12-16T08:36:07;-5.00;99.90
16827;DHT22;8530;49.540;8.576;2022-12-16T08:38:52;-5.00;99.90
16827;DHT22;8530;49.540;8.576;2022-12-16T08:41:36;-4.90;99.90
16827;DHT22;8530;49.540;8.576;2022-12-16T08:44:22;-4.90;99.90
16827;DHT22;8530;49.540;8.576;2022-12-16T08:47:06;-4.90;99.90
16827;DHT22;8530;49.540;8.576;2022-12-16T08:49:50;-4.80;99.90
16827;DHT22;8530;49.540;8.576;2022-12-16T08:52:34;-4.80;99.90
16827;DHT22;8530;49.540;8.576;2022-12-16T08:55:18;-4.70;99.90
16827;DHT22;8530;49.540;8.576;2022-12-16T08:58:04;-4.60;99.90
16827;DHT22;8530;49.540;8.576;2022-12-16T09:00:49;-4.50;99.90
16827;DHT22;8530;49.540;8.576;2022-12-16T09:03:34;-4.50;99.90
16827;DHT22;8530;49.540;8.576;2022-12-16T09:06:18;-4.40;99.90
16827;DHT22;8530;49.540;8.576;2022-12-16T09:09:02;-4.20;99.90
16827;DHT22;8530;49.540;8.576;2022-12-16T09:11:47;-3.90;99.90
16827;DHT22;8530;49.540;8.576;2022-12-16T09:14:31;-3.30;99.90
16827;DHT22;8530;49.540;8.576;2022-12-16T09:17:16;-2.70;99.90
16827;DHT22;8530;49.540;8.576;2022-12-16T09:20:00;-2.10;99.90
16827;DHT22;8530;49.540;8.576;2022-12-16T09:22:45;-1.40;99.90
16827;DHT22;8530;49.540;8.576;2022-12-16T09:25:29;-0.90;99.90
16827;DHT22;8530;49.540;8.576;2022-12-16T09:28:13;-0.60;99.90
16827;DHT22;8530;49.540;8.576;2022-12-16T09:31:09;-0.50;99.90
16827;DHT22;8530;49.540;8.576;2022-12-16T09:33:55;-0.30;99.90
16827;DHT22;8530;49.540;8.576;2022-12-16T09:36:39;-0.30;99.90
16827;DHT22;8530;49.540;8.576;2022-12-16T09:39:23;-0.30;99.80
16827;DHT22;8530;49.540;8.576;2022-12-16T09:42:13;-0.40;99.10
16827;DHT22;8530;49.540;8.576;2022-12-16T09:45:10;-0.50;98.90
16827;DHT22;8530;49.540;8.576;2022-12-16T09:48:00;-0.70;98.70
16827;DHT22;8530;49.540;8.576;2022-12-16T09:50:52;-0.90;98.70
16827;DHT22;8530;49.540;8.576;2022-12-16T09:53:39;-1.00;98.70
16827;DHT22;8530;49.540;8.576;2022-12-16T09:56:29;-1.10;98.50
16827;DHT22;8530;49.540;8.576;2022-12-16T09:59:26;-1.20;98.50
16827;DHT22;8530;49.540;8.576;2022-12-16T10:02:14;-1.20;98.50
16827;DHT22;8530;49.540;8.576;2022-12-16T10:04:59;-1.20;98.50
16827;DHT22;8530;49.540;8.576;2022-12-16T10:07:50;-1.20;98.40
16827;DHT22;8530;49.540;8.576;2022-12-16T10:10:42;-1.20;98.30
16827;DHT22;8530;49.540;8.576;2022-12-16T10:13:33;-1.10;98.30
16827;DHT22;8530;49.540;8.576;2022-12-16T10:16:24;-1.00;98.40
16827;DHT22;8530;49.540;8.576;2022-12-16T10:19:20;-0.90;98.20
16827;DHT22;8530;49.540;8.576;2022-12-16T10:22:13;-0.90;98.20
16827;DHT22;8530;49.540;8.576;2022-12-16T10:25:16;-0.80;98.10
16827;DHT22;8530;49.540;8.576;2022-12-16T10:28:10;-0.80;98.10
16827;DHT22;8530;49.540;8.576;2022-12-16T10:30:57;-0.70;98.10
16827;DHT22;8530;49.540;8.576;2022-12-16T10:33:45;-0.60;98.00
16827;DHT22;8530;49.540;8.576;2022-12-16T10:36:34;-0.50;98.00
16827;DHT22;8530;49.540;8.576;2022-12-16T10:39:24;-0.40;98.00
16827;DHT22;8530;49.540;8.576;2022-12-16T10:42:18;-0.30;97.80
16827;DHT22;8530;49.540;8.576;2022-12-16T10:45:06;-0.20;97.80
16827;DHT22;8530;49.540;8.576;2022-12-16T10:47:56;-0.10;97.60
16827;DHT22;8530;49.540;8.576;2022-12-16T10:50:40;-0.10;97.40
16827;DHT22;8530;49.540;8.576;2022-12-16T10:53:26;0.00;97.30
16827;DHT22;8530;49.540;8.576;2022-12-16T10:56:23;0.00;97.30
16827;DHT22;8530;49.540;8.576;2022-12-16T10:59:16;0.00;97.20
16827;DHT22;8530;49.540;8.576;2022-12-16T11:02:18;0.10;97.10
16827;DHT22;8530;49.540;8.576;2022-12-16T11:05:21;0.10;97.00
16827;DHT22;8530;49.540;8.576;2022-12-16T11:08:22;0.20;96.90
16827;DHT22;8530;49.540;8.576;2022-12-16T11:11:12;0.30;97.00
16827;DHT22;8530;49.540;8.576;2022-12-16T11:14:13;0.40;97.10
16827;DHT22;8530;49.540;8.576;2022-12-16T11:17:20;0.40;96.60
16827;DHT22;8530;49.540;8.576;2022-12-16T11:20:11;0.50;96.40
16827;DHT22;8530;49.540;8.576;2022-12-16T11:23:17;0.50;96.40
16827;DHT22;8530;49.540;8.576;2022-12-16T11:26:11;0.50;96.10
16827;DHT22;8530;49.540;8.576;2022-12-16T11:29:04;0.60;96.10
16827;DHT22;8530;49.540;8.576;2022-12-16T11:31:52;0.60;96.10
16827;DHT22;8530;49.540;8.576;2022-12-16T11:34:40;0.70;96.00
16827;DHT22;8530;49.540;8.576;2022-12-16T11:37:27;0.70;95.90
16827;DHT22;8530;49.540;8.576;2022-12-16T11:40:14;0.70;95.80
16827;DHT22;8530;49.540;8.576;2022-12-16T11:43:02;0.70;95.60
16827;DHT22;8530;49.540;8.576;2022-12-16T11:45:48;0.80;95.50
16827;DHT22;8530;49.540;8.576;2022-12-16T11:48:39;0.80;95.50
16827;DHT22;8530;49.540;8.576;2022-12-16T11:51:30;0.90;95.40
16827;DHT22;8530;49.540;8.576;2022-12-16T11:54:18;0.90;95.00
16827;DHT22;8530;49.540;8.576;2022-12-16T11:57:10;0.90;94.90
16827;DHT22;8530;49.540;8.576;2022-12-16T12:00:00;1.00;94.90
16827;DHT22;8530;49.540;8.576;2022-12-16T12:02:49;1.00;94.80
16827;DHT22;8530;49.540;8.576;2022-12-16T12:05:40;1.00;94.60
16827;DHT22;8530;49.540;8.576;2022-12-16T12:08:32;1.10;94.60
16827;DHT22;8530;49.540;8.576;2022-12-16T12:11:22;1.20;94.40
16827;DHT22;8530;49.540;8.576;2022-12-16T12:14:12;1.20;94.30
16827;DHT22;8530;49.540;8.576;2022-12-16T12:17:09;1.30;94.20
16827;DHT22;8530;49.540;8.576;2022-12-16T12:20:09;1.40;94.10
16827;DHT22;8530;49.540;8.576;2022-12-16T12:23:05;1.40;93.80
16827;DHT22;8530;49.540;8.576;2022-12-16T12:26:04;1.40;93.30
16827;DHT22;8530;49.540;8.576;2022-12-16T12:28:57;1.40;93.20
16827;DHT22;8530;49.540;8.576;2022-12-16T12:31:47;1.50;93.30
16827;DHT22;8530;49.540;8.576;2022-12-16T12:34:38;1.50;93.10
16827;DHT22;8530;49.540;8.576;2022-12-16T12:37:27;1.50;92.90
16827;DHT22;8530;49.540;8.576;2022-12-16T12:40:29;1.40;92.80
16827;DHT22;8530;49.540;8.576;2022-12-16T12:43:25;1.50;92.60
16827;DHT22;8530;49.540;8.576;2022-12-16T12:46:19;1.50;92.60
16827;DHT22;8530;49.540;8.576;2022-12-16T12:49:11;1.50;92.40
16827;DHT22;8530;49.540;8.576;2022-12-16T12:52:05;1.50;92.30
16827;DHT22;8530;49.540;8.576;2022-12-16T12:54:58;1.50;92.10
16827;DHT22;8530;49.540;8.576;2022-12-16T12:57:46;1.50;92.00
16827;DHT22;8530;49.540;8.576;2022-12-16T13:00:47;1.50;91.70
16827;DHT22;8530;49.540;8.576;2022-12-16T13:03:37;1.50;91.60
16827;DHT22;8530;49.540;8.576;2022-12-16T13:06:23;1.50;91.30
16827;DHT22;8530;49.540;8.576;2022-12-16T13:09:28;1.40;91.20
16827;DHT22;8530;49.540;8.576;2022-12-16T13:12:25;1.40;91.10
16827;DHT22;8530;49.540;8.576;2022-12-16T13:15:16;1.40;91.00
16827;DHT22;8530;49.540;8.576;2022-12-16T13:18:22;1.40;91.00
16827;DHT22;8530;49.540;8.576;2022-12-16T13:24:38;1.40;90.60
16827;DHT22;8530;49.540;8.576;2022-12-16T13:27:28;1.40;90.60
16827;DHT22;8530;49.540;8.576;2022-12-16T13:30:22;1.50;90.70
16827;DHT22;8530;49.540;8.576;2022-12-16T13:33:24;1.50;90.50
16827;DHT22;8530;49.540;8.576;2022-12-16T13:36:10;1.60;90.50
16827;DHT22;8530;49.540;8.576;2022-12-16T13:38:57;1.60;90.30
16827;DHT22;8530;49.540;8.576;2022-12-16T13:41:49;1.60;89.90
16827;DHT22;8530;49.540;8.576;2022-12-16T13:44:57;1.50;89.50
16827;DHT22;8530;49.540;8.576;2022-12-16T13:48:02;1.50;89.00
16827;DHT22;8530;49.540;8.576;2022-12-16T13:50:51;1.40;88.80
16827;DHT22;8530;49.540;8.576;2022-12-16T13:53:40;1.30;88.70
16827;DHT22;8530;49.540;8.576;2022-12-16T13:56:30;1.20;88.50
16827;DHT22;8530;49.540;8.576;2022-12-16T13:59:20;1.10;88.20
16827;DHT22;8530;49.540;8.576;2022-12-16T14:02:23;1.00;87.80
16827;DHT22;8530;49.540;8.576;2022-12-16T14:05:18;0.90;87.60
16827;DHT22;8530;49.540;8.576;2022-12-16T14:08:10;0.80;87.50
16827;DHT22;8530;49.540;8.576;2022-12-16T14:10:59;0.80;87.40
16827;DHT22;8530;49.540;8.576;2022-12-16T14:13:49;0.70;87.30
16827;DHT22;8530;49.540;8.576;2022-12-16T14:16:44;0.70;87.50
16827;DHT22;8530;49.540;8.576;2022-12-16T14:19:44;0.60;87.40
16827;DHT22;8530;49.540;8.576;2022-12-16T14:22:47;0.60;87.30
16827;DHT22;8530;49.540;8.576;2022-12-16T14:25:34;0.50;87.10
16827;DHT22;8530;49.540;8.576;2022-12-16T14:28:24;0.50;87.30
16827;DHT22;8530;49.540;8.576;2022-12-16T14:31:14;0.40;87.30
16827;DHT22;8530;49.540;8.576;2022-12-16T14:34:01;0.40;87.30
16827;DHT22;8530;49.540;8.576;2022-12-16T14:36:47;0.30;87.20
16827;DHT22;8530;49.540;8.576;2022-12-16T14:39:37;0.30;87.30
16827;DHT22;8530;49.540;8.576;2022-12-16T14:42:23;0.20;87.30
16827;DHT22;8530;49.540;8.576;2022-12-16T14:45:21;0.20;87.40
16827;DHT22;8530;49.540;8.576;2022-12-16T14:48:18;0.10;87.40
16827;DHT22;8530;49.540;8.576;2022-12-16T14:51:25;0.00;87.40
16827;DHT22;8530;49.540;8.576;2022-12-16T14:54:30;0.00;87.40
16827;DHT22;8530;49.540;8.576;2022-12-16T15:00:34;-0.10;87.30
16827;DHT22;8530;49.540;8.576;2022-12-16T15:03:28;-0.20;87.30
16827;DHT22;8530;49.540;8.576;2022-12-16T15:06:20;-0.30;87.30
16827;DHT22;8530;49.540;8.576;2022-12-16T15:09:10;-0.30;87.40
16827;DHT22;8530;49.540;8.576;2022-12-16T15:11:57;-0.40;87.50
16827;DHT22;8530;49.540;8.576;2022-12-16T15:14:41;-0.50;87.70
16827;DHT22;8530;49.540;8.576;2022-12-16T15:17:28;-0.50;87.80
16827;DHT22;8530;49.540;8.576;2022-12-16T15:20:24;-0.60;87.90
16827;DHT22;8530;49.540;8.576;2022-12-16T15:23:16;-0.70;88.00
16827;DHT22;8530;49.540;8.576;2022-12-16T15:26:02;-0.70;88.30
16827;DHT22;8530;49.540;8.576;2022-12-16T15:28:48;-0.80;88.40
16827;DHT22;8530;49.540;8.576;2022-12-16T15:31:35;-0.90;88.60
16827;DHT22;8530;49.540;8.576;2022-12-16T15:34:31;-0.90;88.90
16827;DHT22;8530;49.540;8.576;2022-12-16T15:37:18;-1.00;89.10
16827;DHT22;8530;49.540;8.576;2022-12-16T15:40:13;-1.10;89.30
16827;DHT22;8530;49.540;8.576;2022-12-16T15:43:01;-1.10;89.60
16827;DHT22;8530;49.540;8.576;2022-12-16T15:45:49;-1.10;89.70
16827;DHT22;8530;49.540;8.576;2022-12-16T15:48:34;-1.20;89.80
16827;DHT22;8530;49.540;8.576;2022-12-16T15:51:21;-1.20;89.90
16827;DHT22;8530;49.540;8.576;2022-12-16T15:54:14;-1.30;90.00
16827;DHT22;8530;49.540;8.576;2022-12-16T15:56:59;-1.40;90.10
16827;DHT22;8530;49.540;8.576;2022-12-16T15:59:55;-1.50;90.20
16827;DHT22;8530;49.540;8.576;2022-12-16T16:02:46;-1.50;90.40
16827;DHT22;8530;49.540;8.576;2022-12-16T16:05:30;-1.60;90.40
16827;DHT22;8530;49.540;8.576;2022-12-16T16:08:15;-1.60;90.50
16827;DHT22;8530;49.540;8.576;2022-12-16T16:10:59;-1.70;90.50
16827;DHT22;8530;49.540;8.576;2022-12-16T16:13:47;-1.70;90.70
16827;DHT22;8530;49.540;8.576;2022-12-16T16:16:32;-1.80;90.70
16827;DHT22;8530;49.540;8.576;2022-12-16T16:19:20;-1.80;90.80
16827;DHT22;8530;49.540;8.576;2022-12-16T16:22:10;-1.90;90.90
16827;DHT22;8530;49.540;8.576;2022-12-16T16:24:55;-2.00;91.10
16827;DHT22;8530;49.540;8.576;2022-12-16T16:27:39;-2.00;91.20
16827;DHT22;8530;49.540;8.576;2022-12-16T16:30:24;-2.00;91.30
16827;DHT22;8530;49.540;8.576;2022-12-16T16:33:08;-2.10;91.40
16827;DHT22;8530;49.540;8.576;2022-12-16T16:35:54;-2.20;91.50
16827;DHT22;8530;49.540;8.576;2022-12-16T16:38:38;-2.20;91.70
16827;DHT22;8530;49.540;8.576;2022-12-16T16:41:22;-2.30;91.80
16827;DHT22;8530;49.540;8.576;2022-12-16T16:44:07;-2.30;91.90
16827;DHT22;8530;49.540;8.576;2022-12-16T16:47:09;-2.40;91.90
16827;DHT22;8530;49.540;8.576;2022-12-16T16:49:58;-2.40;92.10
16827;DHT22;8530;49.540;8.576;2022-12-16T16:52:44;-2.50;92.20
16827;DHT22;8530;49.540;8.576;2022-12-16T16:55:29;-2.60;92.30
16827;DHT22;8530;49.540;8.576;2022-12-16T16:58:17;-2.60;92.50
16827;DHT22;8530;49.540;8.576;2022-12-16T17:01:02;-2.60;92.60
16827;DHT22;8530;49.540;8.576;2022-12-16T17:03:47;-2.60;92.70
16827;DHT22;8530;49.540;8.576;2022-12-16T17:06:31;-2.70;92.80
16827;DHT22;8530;49.540;8.576;2022-12-16T17:09:16;-2.70;92.90
16827;DHT22;8530;49.540;8.576;2022-12-16T17:12:01;-2.70;93.10
16827;DHT22;8530;49.540;8.576;2022-12-16T17:14:45;-2.80;93.20
16827;DHT22;8530;49.540;8.576;2022-12-16T17:17:29;-2.80;93.30
16827;DHT22;8530;49.540;8.576;2022-12-16T17:20:14;-2.90;93.40
16827;DHT22;8530;49.540;8.576;2022-12-16T17:22:59;-2.90;93.50
16827;DHT22;8530;49.540;8.576;2022-12-16T17:25:44;-2.90;93.60
16827;DHT22;8530;49.540;8.576;2022-12-16T17:28:28;-3.00;93.70
16827;DHT22;8530;49.540;8.576;2022-12-16T17:31:13;-3.00;93.80
16827;DHT22;8530;49.540;8.576;2022-12-16T17:34:08;-3.10;93.90
16827;DHT22;8530;49.540;8.576;2022-12-16T17:36:53;-3.10;94.20
16827;DHT22;8530;49.540;8.576;2022-12-16T17:39:37;-3.10;94.40
16827;DHT22;8530;49.540;8.576;2022-12-16T17:42:23;-3.10;94.50
16827;DHT22;8530;49.540;8.576;2022-12-16T17:45:08;-3.10;94.40